Time;durP1;ratioP1;P1;durP2;ratioP2;P2;SDS_P1;SDS_P2;PMS_P1;PMS_P2;Temp;Humidity;BMP_temperature;BMP_pressure;BME280_temperature;BME280_humidity;BME280_pressure;Samples;Min_cycle;Max_cycle;Signal;HPM_P1;HPM_P2
2022/08/15 00:01:36;;;;;;;4.03;1.80;;;;;;;;;;5051663;28;20052;-65
2022/08/15 00:04:03;;;;;;;4.60;2.00;;;;;;;;;;5050769;28;20047;-65
2022/08/15 00:06:32;;;;;;;3.92;1.75;;;;;;;;;;5053583;28;20051;-65
2022/08/15 00:09:01;;;;;;;4.43;2.30;;;;;;;;;;5054665;28;20051;-65
2022/08/15 00:11:31;;;;;;;5.65;2.20;;;;;;;;;;5057072;28;20202;-65
2022/08/15 00:14:10;;;;;;;4.25;2.42;;;;;;;;;;5057563;28;20121;-65
2022/08/15 00:16:38;;;;;;;3.80;1.90;;;;;;;;;;5055700;28;20051;-64
2022/08/15 00:19:07;;;;;;;5.18;2.10;;;;;;;;;;5057524;28;20473;-65
2022/08/15 00:21:35;;;;;;;5.25;2.08;;;;;;;;;;5054992;28;20037;-65
2022/08/15 00:24:01;;;;;;;6.40;1.95;;;;;;;;;;5054578;28;20411;-65
2022/08/15 00:26:28;;;;;;;4.82;1.83;;;;;;;;;;5054239;28;20044;-64
2022/08/15 00:28:55;;;;;;;6.68;2.30;;;;;;;;;;5056338;28;20052;-66
2022/08/15 00:31:22;;;;;;;5.32;2.10;;;;;;;;;;5058022;28;20119;-66
2022/08/15 00:33:50;;;;;;;4.63;2.50;;;;;;;;;;5059112;28;20102;-64
2022/08/15 00:36:16;;;;;;;4.07;2.15;;;;;;;;;;5059787;28;21869;-66
2022/08/15 00:38:43;;;;;;;6.32;2.30;;;;;;;;;;5058916;28;20052;-65
2022/08/15 00:44:00;;;;;;;8.48;2.28;;;;;;;;;;5055399;28;22038;-64
2022/08/15 00:46:28;;;;;;;4.25;2.25;;;;;;;;;;5055090;28;20122;-64
2022/08/15 00:48:55;;;;;;;6.32;2.00;;;;;;;;;;5054679;28;20086;-65
2022/08/15 00:51:27;;;;;;;4.40;1.85;;;;;;;;;;5054269;28;20044;-64
2022/08/15 00:53:56;;;;;;;6.03;2.00;;;;;;;;;;5054175;28;20036;-65
2022/08/15 00:56:25;;;;;;;4.30;2.25;;;;;;;;;;5054373;28;20480;-65
2022/08/15 00:58:52;;;;;;;5.53;2.08;;;;;;;;;;5053799;28;20115;-65
2022/08/15 01:01:18;;;;;;;4.32;1.98;;;;;;;;;;5053284;28;20044;-64
2022/08/15 01:03:47;;;;;;;8.35;2.08;;;;;;;;;;5053033;28;20407;-66
2022/08/15 01:06:14;;;;;;;4.80;1.90;;;;;;;;;;5051327;28;20059;-65
2022/08/15 01:08:43;;;;;;;5.40;2.10;;;;;;;;;;5050174;28;20090;-66
2022/08/15 01:11:15;;;;;;;3.72;1.80;;;;;;;;;;5050703;28;20139;-65
2022/08/15 01:13:42;;;;;;;5.97;2.70;;;;;;;;;;5052273;28;20044;-66
2022/08/15 01:16:09;;;;;;;10.68;3.13;;;;;;;;;;5039891;28;20040;-65
2022/08/15 01:29:22;;;;;;;8.10;2.38;;;;;;;;;;5048351;27;20437;-65
2022/08/15 01:31:49;;;;;;;5.90;2.45;;;;;;;;;;5030025;28;20076;-66
2022/08/15 01:34:17;;;;;;;6.30;2.35;;;;;;;;;;5010344;28;20125;-66
2022/08/15 01:36:43;;;;;;;7.20;2.50;;;;;;;;;;5024061;28;20041;-67
2022/08/15 01:39:32;;;;;;;6.00;2.60;;;;;;;;;;5029061;28;20113;-66
2022/08/15 01:42:06;;;;;;;4.40;2.20;;;;;;;;;;5011123;28;20041;-65
2022/08/15 01:44:34;;;;;;;4.45;2.42;;;;;;;;;;5022978;28;20042;-66
2022/08/15 01:47:06;;;;;;;6.47;2.25;;;;;;;;;;5007112;28;20100;-66
2022/08/15 01:49:53;;;;;;;5.68;2.05;;;;;;;;;;5007313;28;20041;-66
2022/08/15 01:52:20;;;;;;;8.00;2.53;;;;;;;;;;5009394;28;20049;-66
2022/08/15 01:54:47;;;;;;;5.28;2.08;;;;;;;;;;5009524;28;20116;-65
2022/08/15 01:57:14;;;;;;;5.25;2.25;;;;;;;;;;5010518;28;20041;-65
2022/08/15 01:59:40;;;;;;;7.07;2.38;;;;;;;;;;5023404;28;20175;-65
2022/08/15 02:02:10;;;;;;;4.70;2.15;;;;;;;;;;5009020;28;20049;-65
2022/08/15 02:04:39;;;;;;;7.55;2.13;;;;;;;;;;5007443;28;20030;-66
2022/08/15 02:07:08;;;;;;;6.07;2.20;;;;;;;;;;5010444;28;20141;-66
2022/08/15 02:09:35;;;;;;;6.72;2.28;;;;;;;;;;5021646;28;20038;-67
2022/08/15 02:12:08;;;;;;;9.43;3.45;;;;;;;;;;5011313;28;20042;-66
2022/08/15 02:14:35;;;;;;;6.50;3.13;;;;;;;;;;5021221;28;20121;-71
2022/08/15 02:17:03;;;;;;;6.68;2.38;;;;;;;;;;5023462;28;20834;-69
2022/08/15 02:19:30;;;;;;;7.20;2.70;;;;;;;;;;5011168;28;20046;-69
2022/08/15 02:21:56;;;;;;;6.47;3.00;;;;;;;;;;5009401;28;20487;-69
2022/08/15 02:24:24;;;;;;;9.85;2.85;;;;;;;;;;5007151;28;20490;-72
2022/08/15 02:26:52;;;;;;;7.72;3.13;;;;;;;;;;5022888;28;20046;-69
2022/08/15 02:29:25;;;;;;;13.15;4.05;;;;;;;;;;5008271;28;20054;-69
2022/08/15 02:31:52;;;;;;;8.43;3.33;;;;;;;;;;5028466;28;20040;-69
2022/08/15 02:34:19;;;;;;;6.53;3.58;;;;;;;;;;5008867;28;20103;-68
2022/08/15 02:49:14;;;;;;;8.05;3.42;;;;;;;;;;5026118;28;20463;-71
2022/08/15 02:52:55;;;;;;;9.25;3.40;;;;;;;;;;5067936;27;20965;-70
2022/08/15 02:57:10;;;;;;;5.55;2.53;;;;;;;;;;5029987;27;20446;-68
2022/08/15 02:59:37;;;;;;;8.77;3.00;;;;;;;;;;5012960;28;20038;-68
2022/08/15 03:02:04;;;;;;;8.68;2.92;;;;;;;;;;5013890;28;20391;-69
2022/08/15 03:04:34;;;;;;;7.72;2.85;;;;;;;;;;5026805;28;20080;-68
2022/08/15 03:07:01;;;;;;;9.07;4.28;;;;;;;;;;5012080;28;20399;-69
2022/08/15 03:09:32;;;;;;;11.95;5.07;;;;;;;;;;5013299;28;20045;-67
2022/08/15 03:11:59;;;;;;;8.88;4.03;;;;;;;;;;5014167;28;20095;-68
2022/08/15 03:14:26;;;;;;;8.35;3.72;;;;;;;;;;5012612;28;20333;-68
2022/08/15 03:16:53;;;;;;;11.00;4.15;;;;;;;;;;5015292;28;20049;-68
2022/08/15 03:19:25;;;;;;;11.30;3.38;;;;;;;;;;5013119;28;20064;-68
2022/08/15 03:21:52;;;;;;;8.35;3.33;;;;;;;;;;5013860;28;20751;-68
2022/08/15 03:24:19;;;;;;;7.28;3.08;;;;;;;;;;5013814;28;20411;-67
2022/08/15 03:26:46;;;;;;;9.95;3.28;;;;;;;;;;5020671;28;20380;-67
2022/08/15 03:29:16;;;;;;;13.20;3.42;;;;;;;;;;5013482;28;20050;-67
2022/08/15 03:31:43;;;;;;;8.32;3.10;;;;;;;;;;5012290;28;20042;-67
2022/08/15 03:34:10;;;;;;;7.90;3.20;;;;;;;;;;5013375;28;20091;-67
2022/08/15 03:36:37;;;;;;;7.55;2.92;;;;;;;;;;5010340;28;20056;-67
2022/08/15 03:39:04;;;;;;;7.90;3.15;;;;;;;;;;5011748;28;20029;-67
2022/08/15 03:41:31;;;;;;;7.30;3.10;;;;;;;;;;5027080;28;20097;-67
2022/08/15 03:43:58;;;;;;;8.95;3.00;;;;;;;;;;5012818;28;20249;-67
2022/08/15 03:46:25;;;;;;;11.25;3.10;;;;;;;;;;5015974;28;20462;-65
2022/08/15 03:48:53;;;;;;;7.10;3.60;;;;;;;;;;5014302;28;20384;-65
2022/08/15 03:51:21;;;;;;;13.82;3.85;;;;;;;;;;5011854;28;20144;-69
2022/08/15 03:53:50;;;;;;;8.85;3.08;;;;;;;;;;5013439;28;20074;-69
2022/08/15 03:56:19;;;;;;;6.50;2.95;;;;;;;;;;5011923;28;20049;-68
2022/08/15 03:58:46;;;;;;;8.55;3.35;;;;;;;;;;5020502;28;20033;-69
2022/08/15 04:01:17;;;;;;;10.98;3.30;;;;;;;;;;5011669;28;20044;-69
2022/08/15 04:03:45;;;;;;;7.85;2.78;;;;;;;;;;5013080;28;20379;-68
2022/08/15 04:06:12;;;;;;;11.45;3.28;;;;;;;;;;5011503;28;20045;-69
2022/08/15 04:08:39;;;;;;;5.53;2.60;;;;;;;;;;4999118;28;20141;-68
2022/08/15 04:11:07;;;;;;;7.72;2.70;;;;;;;;;;5001120;28;20045;-69
2022/08/15 04:13:39;;;;;;;7.00;2.72;;;;;;;;;;5000461;28;20034;-68
2022/08/15 04:16:06;;;;;;;9.32;2.90;;;;;;;;;;5015512;28;20136;-69
2022/08/15 04:18:33;;;;;;;9.40;3.63;;;;;;;;;;4999763;28;20387;-67
2022/08/15 04:21:01;;;;;;;8.70;3.00;;;;;;;;;;5000614;28;20034;-67
2022/08/15 04:23:28;;;;;;;8.95;3.38;;;;;;;;;;5014960;28;20489;-70
2022/08/15 04:25:55;;;;;;;6.35;2.80;;;;;;;;;;5000023;28;20558;-69
2022/08/15 04:28:25;;;;;;;9.25;3.40;;;;;;;;;;5000519;28;20070;-68
2022/08/15 04:30:52;;;;;;;5.28;3.05;;;;;;;;;;5000901;28;20161;-68
2022/08/15 04:33:23;;;;;;;4.68;2.67;;;;;;;;;;5008396;28;20138;-67
2022/08/15 04:35:51;;;;;;;9.48;3.20;;;;;;;;;;4999620;28;20064;-67
2022/08/15 04:38:18;;;;;;;8.27;2.70;;;;;;;;;;5021774;28;20382;-68
2022/08/15 04:40:45;;;;;;;9.45;3.10;;;;;;;;;;5003042;28;20038;-68
2022/08/15 04:43:16;;;;;;;6.82;3.13;;;;;;;;;;5002360;28;20038;-68
2022/08/15 04:45:43;;;;;;;8.63;2.97;;;;;;;;;;5002037;28;20168;-69
2022/08/15 04:48:16;;;;;;;7.32;3.05;;;;;;;;;;4996585;28;21795;-69
2022/08/15 04:50:44;;;;;;;5.43;2.85;;;;;;;;;;5000590;28;20101;-69
2022/08/15 04:53:12;;;;;;;12.40;3.55;;;;;;;;;;5000803;28;20042;-68
2022/08/15 04:55:43;;;;;;;8.18;3.17;;;;;;;;;;4998969;28;21048;-69
2022/08/15 04:58:12;;;;;;;8.68;2.72;;;;;;;;;;5000890;28;20387;-68
2022/08/15 05:00:40;;;;;;;5.47;2.58;;;;;;;;;;4998234;28;20050;-68
2022/08/15 05:03:16;;;;;;;9.10;3.20;;;;;;;;;;4997368;28;20514;-67
2022/08/15 05:05:45;;;;;;;6.47;2.60;;;;;;;;;;4997347;28;20092;-67
2022/08/15 05:08:12;;;;;;;9.65;3.08;;;;;;;;;;4998114;28;20115;-66
2022/08/15 05:10:39;;;;;;;7.65;3.08;;;;;;;;;;4997400;28;20176;-67
2022/08/15 05:13:24;;;;;;;5.38;2.88;;;;;;;;;;4998012;28;20045;-67
2022/08/15 05:15:53;;;;;;;7.97;2.88;;;;;;;;;;4997090;28;20050;-67
2022/08/15 05:18:20;;;;;;;10.75;3.20;;;;;;;;;;5011859;28;20121;-68
2022/08/15 05:20:47;;;;;;;6.63;3.05;;;;;;;;;;4997601;28;20129;-68
2022/08/15 05:23:15;;;;;;;7.60;3.08;;;;;;;;;;4998375;28;20045;-67
2022/08/15 05:25:43;;;;;;;5.55;2.95;;;;;;;;;;4993052;28;20068;-68
2022/08/15 05:28:10;;;;;;;7.68;3.40;;;;;;;;;;4998779;28;21128;-68
2022/08/15 05:30:37;;;;;;;5.40;3.13;;;;;;;;;;4998529;28;21722;-68
2022/08/15 05:33:05;;;;;;;7.45;3.13;;;;;;;;;;5019539;28;20046;-67
2022/08/15 05:35:33;;;;;;;7.63;3.22;;;;;;;;;;5011777;28;20394;-67
2022/08/15 05:38:01;;;;;;;6.63;2.90;;;;;;;;;;4998513;28;20044;-67
2022/08/15 05:40:30;;;;;;;7.10;2.90;;;;;;;;;;4998330;28;21952;-68
2022/08/15 05:43:03;;;;;;;9.65;3.22;;;;;;;;;;4997816;28;20498;-68
2022/08/15 05:45:43;;;;;;;5.63;2.97;;;;;;;;;;4998009;28;20042;-69
2022/08/15 05:48:13;;;;;;;7.25;2.70;;;;;;;;;;4999259;28;20056;-69
2022/08/15 05:50:53;;;;;;;8.30;2.92;;;;;;;;;;4998677;28;20033;-69
2022/08/15 05:53:21;;;;;;;5.13;2.70;;;;;;;;;;4999060;28;20077;-68
2022/08/15 05:56:05;;;;;;;11.50;2.80;;;;;;;;;;4999069;28;20053;-68
2022/08/15 05:58:35;;;;;;;10.07;2.90;;;;;;;;;;4997720;28;20077;-67
2022/08/15 06:01:05;;;;;;;5.57;2.50;;;;;;;;;;4999777;28;20695;-67
2022/08/15 06:03:32;;;;;;;7.68;2.95;;;;;;;;;;5014562;28;20057;-67
2022/08/15 06:06:03;;;;;;;6.63;2.63;;;;;;;;;;4997666;28;20720;-67
2022/08/15 06:08:33;;;;;;;8.00;2.17;;;;;;;;;;4998981;28;20486;-67
2022/08/15 06:11:20;;;;;;;9.20;3.10;;;;;;;;;;5000759;28;20042;-67
2022/08/15 06:13:56;;;;;;;5.30;2.35;;;;;;;;;;5008516;28;20478;-67
2022/08/15 06:16:26;;;;;;;7.20;2.63;;;;;;;;;;4998198;28;20085;-67
2022/08/15 06:18:55;;;;;;;4.53;2.33;;;;;;;;;;4997380;28;20099;-67
2022/08/15 06:21:33;;;;;;;6.38;2.42;;;;;;;;;;5004946;28;20061;-66
2022/08/15 06:24:18;;;;;;;7.50;2.63;;;;;;;;;;5002222;28;20037;-67
2022/08/15 06:27:05;;;;;;;4.47;2.00;;;;;;;;;;5004552;28;20052;-65
2022/08/15 06:29:38;;;;;;;4.97;2.10;;;;;;;;;;4996717;28;20557;-64
2022/08/15 06:32:09;;;;;;;5.53;2.00;;;;;;;;;;4996611;28;20050;-64
2022/08/15 06:34:36;;;;;;;4.60;2.13;;;;;;;;;;4999313;28;20037;-65
2022/08/15 06:37:03;;;;;;;4.70;2.20;;;;;;;;;;4996815;28;20050;-64
2022/08/15 06:39:37;;;;;;;5.93;2.15;;;;;;;;;;5001715;28;20582;-65
2022/08/15 06:42:12;;;;;;;5.10;2.10;;;;;;;;;;4997446;28;20056;-65
2022/08/15 06:44:38;;;;;;;4.78;2.10;;;;;;;;;;4997060;28;20089;-64
2022/08/15 06:47:07;;;;;;;7.82;2.05;;;;;;;;;;4996516;28;20045;-64
2022/08/15 06:49:41;;;;;;;4.55;1.83;;;;;;;;;;4996872;28;20405;-65
2022/08/15 06:52:11;;;;;;;7.00;2.00;;;;;;;;;;4997540;28;20119;-64
2022/08/15 06:54:39;;;;;;;5.18;2.10;;;;;;;;;;4995779;28;20129;-65
2022/08/15 06:57:09;;;;;;;8.02;2.03;;;;;;;;;;4997648;28;20046;-64
2022/08/15 06:59:38;;;;;;;4.82;2.35;;;;;;;;;;4996350;28;20037;-64
2022/08/15 07:02:09;;;;;;;5.50;2.10;;;;;;;;;;5000778;28;21682;-64
2022/08/15 07:05:05;;;;;;;4.32;1.90;;;;;;;;;;4998861;28;20034;-64
2022/08/15 07:07:48;;;;;;;4.35;1.92;;;;;;;;;;4993547;28;20180;-64
2022/08/15 07:10:22;;;;;;;4.53;1.77;;;;;;;;;;4996850;28;20056;-63
2022/08/15 07:13:02;;;;;;;5.03;1.80;;;;;;;;;;5006246;28;20108;-64
2022/08/15 07:15:36;;;;;;;4.82;1.70;;;;;;;;;;4998498;28;20049;-65
2022/08/15 07:18:22;;;;;;;4.20;1.95;;;;;;;;;;4998296;28;20045;-63
2022/08/15 07:20:50;;;;;;;6.10;1.80;;;;;;;;;;5005681;28;20295;-63
2022/08/15 07:23:19;;;;;;;5.85;2.10;;;;;;;;;;4999269;28;20689;-65
2022/08/15 07:25:47;;;;;;;6.30;2.10;;;;;;;;;;5004205;28;20687;-67
2022/08/15 07:28:16;;;;;;;4.05;1.77;;;;;;;;;;5000215;28;20037;-66
2022/08/15 07:30:47;;;;;;;6.28;1.80;;;;;;;;;;4998190;28;20073;-66
2022/08/15 07:33:42;;;;;;;5.03;1.77;;;;;;;;;;4999345;28;20483;-66
2022/08/15 07:36:26;;;;;;;4.35;1.70;;;;;;;;;;4987041;28;20049;-65
2022/08/15 07:38:53;;;;;;;6.15;1.90;;;;;;;;;;5015665;28;20160;-67
2022/08/15 07:41:33;;;;;;;4.85;1.92;;;;;;;;;;5015419;28;20037;-66
2022/08/15 07:44:01;;;;;;;4.57;1.73;;;;;;;;;;5020460;28;20050;-65
2022/08/15 07:46:41;;;;;;;3.88;1.70;;;;;;;;;;5018610;28;20033;-67
2022/08/15 07:49:28;;;;;;;4.55;1.83;;;;;;;;;;5019589;28;20167;-67
2022/08/15 07:52:00;;;;;;;4.28;1.77;;;;;;;;;;5020492;28;20037;-67
2022/08/15 07:54:39;;;;;;;6.05;1.70;;;;;;;;;;5020682;28;20049;-68
2022/08/15 07:57:06;;;;;;;4.03;1.70;;;;;;;;;;5019616;28;20053;-68
2022/08/15 07:59:36;;;;;;;4.97;2.10;;;;;;;;;;5020521;28;20037;-67
2022/08/15 08:02:11;;;;;;;5.47;1.92;;;;;;;;;;5019765;28;20870;-68
2022/08/15 08:04:38;;;;;;;3.97;1.73;;;;;;;;;;5018735;28;20045;-66
2022/08/15 08:07:16;;;;;;;8.00;2.08;;;;;;;;;;5020774;28;20457;-67
2022/08/15 08:09:53;;;;;;;5.15;1.65;;;;;;;;;;5021764;28;20045;-68
2022/08/15 08:12:23;;;;;;;6.20;1.80;;;;;;;;;;5019925;28;20048;-67
2022/08/15 08:15:02;;;;;;;4.13;1.88;;;;;;;;;;5021791;28;20655;-68
2022/08/15 08:17:31;;;;;;;5.75;1.73;;;;;;;;;;5023108;28;20053;-67
2022/08/15 08:20:04;;;;;;;4.45;1.70;;;;;;;;;;5021301;28;20625;-66
2022/08/15 08:22:57;;;;;;;3.65;1.55;;;;;;;;;;5019705;28;20122;-66
2022/08/15 08:25:30;;;;;;;5.30;1.52;;;;;;;;;;5017181;28;20698;-66
2022/08/15 08:28:02;;;;;;;4.15;1.75;;;;;;;;;;5021911;28;20509;-66
2022/08/15 08:30:36;;;;;;;3.23;1.37;;;;;;;;;;5020435;28;20041;-66
2022/08/15 08:33:10;;;;;;;4.22;1.85;;;;;;;;;;5021929;28;20069;-66
2022/08/15 08:35:55;;;;;;;11.45;1.77;;;;;;;;;;5021296;28;20084;-65
2022/08/15 08:38:36;;;;;;;5.72;1.73;;;;;;;;;;5022858;28;20674;-66
2022/08/15 08:41:25;;;;;;;3.83;1.63;;;;;;;;;;5020727;28;20049;-67
2022/08/15 08:44:02;;;;;;;3.92;1.60;;;;;;;;;;5019373;28;20648;-66
2022/08/15 08:46:28;;;;;;;3.95;1.70;;;;;;;;;;5017201;28;21834;-65
2022/08/15 08:49:01;;;;;;;4.65;1.60;;;;;;;;;;5019063;28;20040;-65
2022/08/15 08:51:34;;;;;;;3.67;1.58;;;;;;;;;;5018066;28;20099;-65
2022/08/15 08:54:01;;;;;;;;;;;;;;;;;;5019324;28;20187;-67
2022/08/15 08:56:33;;;;;;;5.18;1.90;;;;;;;;;;5016040;28;19962;-67
2022/08/15 08:59:05;;;;;;;4.85;1.80;;;;;;;;;;5018531;28;20122;-66
2022/08/15 09:01:35;;;;;;;6.97;2.00;;;;;;;;;;4997120;28;20060;-66
2022/08/15 09:04:04;;;;;;;5.00;1.60;;;;;;;;;;5018696;28;20041;-66
2022/08/15 09:06:34;;;;;;;4.05;1.70;;;;;;;;;;5017021;28;20038;-67
2022/08/15 09:09:11;;;;;;;5.68;1.73;;;;;;;;;;5018061;28;20036;-67
2022/08/15 09:11:42;;;;;;;4.38;1.60;;;;;;;;;;5017986;28;20042;-66
2022/08/15 09:14:32;;;;;;;5.97;2.00;;;;;;;;;;5018134;28;21102;-66
2022/08/15 09:17:02;;;;;;;8.63;1.85;;;;;;;;;;5008727;28;20137;-66
2022/08/15 09:19:43;;;;;;;4.57;2.08;;;;;;;;;;5016098;28;20490;-66
2022/08/15 09:22:10;;;;;;;5.63;2.20;;;;;;;;;;5018861;28;20044;-66
2022/08/15 09:24:37;;;;;;;4.30;1.88;;;;;;;;;;5016328;28;20096;-66
2022/08/15 09:27:04;;;;;;;4.85;1.70;;;;;;;;;;5017028;28;20038;-66
2022/08/15 09:29:36;;;;;;;6.65;1.98;;;;;;;;;;5017945;28;20042;-66
2022/08/15 09:32:05;;;;;;;5.22;1.95;;;;;;;;;;5018289;28;20410;-66
2022/08/15 09:34:32;;;;;;;6.97;2.00;;;;;;;;;;5017997;28;20390;-67
2022/08/15 09:37:09;;;;;;;4.07;1.70;;;;;;;;;;5018289;28;20106;-66
2022/08/15 09:39:57;;;;;;;5.38;1.70;;;;;;;;;;5016588;28;20597;-67
2022/08/15 09:42:35;;;;;;;4.35;1.90;;;;;;;;;;5018143;28;20048;-67
2022/08/15 09:45:04;;;;;;;4.32;1.90;;;;;;;;;;5017077;28;20490;-66
2022/08/15 09:47:39;;;;;;;4.53;1.90;;;;;;;;;;5016942;28;20045;-66
2022/08/15 09:50:09;;;;;;;5.60;1.85;;;;;;;;;;5017510;28;20063;-66
2022/08/15 09:52:40;;;;;;;4.03;1.80;;;;;;;;;;5014647;28;20055;-66
2022/08/15 09:55:26;;;;;;;5.78;1.75;;;;;;;;;;5017617;28;20833;-66
2022/08/15 09:57:57;;;;;;;7.32;2.00;;;;;;;;;;5015704;28;20106;-65
2022/08/15 10:00:25;;;;;;;4.68;1.98;;;;;;;;;;5017926;28;20043;-57
2022/08/15 10:02:53;;;;;;;6.90;1.98;;;;;;;;;;5015648;28;20515;-58
2022/08/15 10:05:23;;;;;;;4.93;2.10;;;;;;;;;;4999303;28;20045;-61
2022/08/15 10:07:53;;;;;;;5.22;2.13;;;;;;;;;;4996307;28;20049;-59
2022/08/15 10:10:19;;;;;;;5.20;2.28;;;;;;;;;;4996292;28;20049;-60
2022/08/15 10:13:04;;;;;;;4.47;2.30;;;;;;;;;;4996978;28;20061;-56
2022/08/15 10:15:41;;;;;;;4.65;1.95;;;;;;;;;;4995991;28;20199;-58
2022/08/15 10:18:09;;;;;;;6.05;2.13;;;;;;;;;;4995661;28;20089;-63
2022/08/15 10:20:40;;;;;;;5.78;1.90;;;;;;;;;;4994786;28;20053;-59
2022/08/15 10:23:08;;;;;;;6.47;2.20;;;;;;;;;;4997005;28;20136;-58
2022/08/15 10:25:37;;;;;;;5.40;2.05;;;;;;;;;;4996965;28;20096;-58
2022/08/15 10:28:19;;;;;;;5.18;2.03;;;;;;;;;;4997195;28;20057;-58
2022/08/15 10:30:52;;;;;;;6.13;1.90;;;;;;;;;;4996601;28;20164;-56
2022/08/15 10:33:29;;;;;;;5.28;2.30;;;;;;;;;;4996503;28;20499;-60
2022/08/15 10:36:16;;;;;;;5.18;2.03;;;;;;;;;;4996388;28;20069;-59
2022/08/15 10:38:52;;;;;;;5.32;1.85;;;;;;;;;;5004101;28;20049;-58
2022/08/15 10:41:25;;;;;;;4.30;1.90;;;;;;;;;;4995630;28;20050;-58
2022/08/15 10:43:51;;;;;;;4.68;2.10;;;;;;;;;;4996622;28;20407;-59
2022/08/15 10:46:30;;;;;;;4.30;2.00;;;;;;;;;;4995853;28;20038;-59
2022/08/15 10:49:09;;;;;;;5.18;2.17;;;;;;;;;;5002817;28;20115;-57
2022/08/15 10:51:53;;;;;;;6.03;2.25;;;;;;;;;;4995705;28;20100;-59
2022/08/15 10:54:22;;;;;;;6.25;2.17;;;;;;;;;;4996331;28;21766;-60
2022/08/15 10:56:54;;;;;;;4.78;2.15;;;;;;;;;;4996257;28;20049;-59
2022/08/15 10:59:41;;;;;;;6.53;1.90;;;;;;;;;;4996393;28;20513;-57
2022/08/15 11:02:18;;;;;;;4.05;2.03;;;;;;;;;;4997168;28;20052;-58
2022/08/15 11:04:45;;;;;;;4.88;1.90;;;;;;;;;;4997168;28;20046;-57
2022/08/15 11:07:17;;;;;;;4.55;2.10;;;;;;;;;;5016301;28;20041;-57
2022/08/15 11:09:51;;;;;;;4.70;2.00;;;;;;;;;;4997272;28;20045;-60
2022/08/15 11:12:20;;;;;;;4.32;2.00;;;;;;;;;;4995615;28;20041;-61
2022/08/15 11:14:51;;;;;;;5.70;2.38;;;;;;;;;;4997034;28;20052;-61
2022/08/15 11:17:20;;;;;;;5.72;2.28;;;;;;;;;;4996769;28;20534;-57
2022/08/15 11:19:52;;;;;;;5.65;2.08;;;;;;;;;;4999970;28;20060;-57
2022/08/15 11:22:36;;;;;;;7.85;2.58;;;;;;;;;;4999744;28;20042;-58
2022/08/15 11:25:07;;;;;;;7.55;2.30;;;;;;;;;;5001099;28;20088;-57
2022/08/15 11:27:34;;;;;;;4.40;1.95;;;;;;;;;;4999636;28;20071;-58
2022/08/15 11:30:03;;;;;;;5.57;2.20;;;;;;;;;;5001024;28;20534;-57
2022/08/15 11:32:32;;;;;;;5.15;2.10;;;;;;;;;;4999955;28;20184;-57
2022/08/15 11:34:59;;;;;;;4.75;2.17;;;;;;;;;;5001554;28;20046;-58
2022/08/15 11:37:27;;;;;;;5.00;2.30;;;;;;;;;;4999711;28;20101;-57
2022/08/15 11:40:01;;;;;;;5.13;2.10;;;;;;;;;;5002375;28;20081;-57
2022/08/15 11:42:30;;;;;;;7.07;2.30;;;;;;;;;;4997309;28;20076;-57
2022/08/15 11:45:09;;;;;;;4.97;2.42;;;;;;;;;;5000519;28;20038;-56
2022/08/15 11:47:37;;;;;;;6.68;2.28;;;;;;;;;;4999166;28;20108;-58
2022/08/15 11:50:08;;;;;;;8.18;2.30;;;;;;;;;;4999192;28;20041;-56
2022/08/15 11:52:37;;;;;;;6.40;2.20;;;;;;;;;;4997952;28;20410;-57
2022/08/15 11:55:23;;;;;;;5.47;1.90;;;;;;;;;;5000351;28;20042;-57
2022/08/15 11:57:51;;;;;;;7.47;1.70;;;;;;;;;;4998096;28;20046;-58
2022/08/15 12:00:27;;;;;;;5.95;1.77;;;;;;;;;;4999317;28;20526;-60
2022/08/15 12:02:54;;;;;;;5.57;2.50;;;;;;;;;;5000138;28;20061;-58
2022/08/15 12:05:29;;;;;;;5.97;2.13;;;;;;;;;;4998054;28;20042;-57
2022/08/15 12:07:57;;;;;;;5.00;2.10;;;;;;;;;;4997858;28;20042;-58
2022/08/15 12:10:27;;;;;;;5.60;2.22;;;;;;;;;;4998727;28;20042;-58
2022/08/15 12:12:54;;;;;;;6.28;2.38;;;;;;;;;;4998858;28;20040;-59
2022/08/15 12:15:23;;;;;;;5.57;1.90;;;;;;;;;;4997071;28;20168;-58
2022/08/15 12:18:04;;;;;;;5.57;2.00;;;;;;;;;;4998612;28;20452;-59
2022/08/15 12:20:41;;;;;;;6.82;2.47;;;;;;;;;;4997183;28;20041;-58
2022/08/15 12:23:27;;;;;;;7.00;2.50;;;;;;;;;;5014101;28;20053;-60
2022/08/15 12:26:07;;;;;;;8.30;2.55;;;;;;;;;;4998927;28;20038;-59
2022/08/15 12:28:34;;;;;;;7.95;2.00;;;;;;;;;;5017916;28;20072;-58
2022/08/15 12:31:10;;;;;;;10.80;2.38;;;;;;;;;;5000840;28;20123;-58
2022/08/15 12:33:37;;;;;;;6.00;2.38;;;;;;;;;;5000240;28;20045;-58
2022/08/15 12:36:03;;;;;;;4.45;2.30;;;;;;;;;;5000396;28;20104;-63
2022/08/15 12:38:31;;;;;;;5.57;2.58;;;;;;;;;;5014557;28;20805;-59
2022/08/15 12:40:58;;;;;;;6.15;2.60;;;;;;;;;;5001454;28;20041;-59
2022/08/15 12:43:25;;;;;;;6.13;2.47;;;;;;;;;;5000029;28;20479;-57
2022/08/15 12:45:51;;;;;;;6.53;2.10;;;;;;;;;;5000000;28;20045;-60
2022/08/15 12:48:28;;;;;;;4.10;2.08;;;;;;;;;;4998623;28;20566;-63
2022/08/15 12:50:56;;;;;;;4.45;2.20;;;;;;;;;;5000706;28;20056;-59
2022/08/15 12:53:23;;;;;;;5.00;2.10;;;;;;;;;;4998462;28;20057;-59
2022/08/15 12:55:50;;;;;;;5.82;1.98;;;;;;;;;;4998924;28;20061;-58
2022/08/15 12:58:18;;;;;;;4.93;2.10;;;;;;;;;;4998927;28;20040;-60
2022/08/15 13:00:46;;;;;;;9.80;2.30;;;;;;;;;;5006233;28;20511;-58
2022/08/15 13:03:19;;;;;;;4.00;1.98;;;;;;;;;;4998653;28;20069;-58
2022/08/15 13:05:51;;;;;;;3.65;1.88;;;;;;;;;;5005902;28;20057;-60
2022/08/15 13:08:18;;;;;;;7.53;2.10;;;;;;;;;;4999117;28;20042;-62
2022/08/15 13:10:45;;;;;;;4.55;2.00;;;;;;;;;;4997363;28;20128;-58
2022/08/15 13:13:12;;;;;;;6.18;2.45;;;;;;;;;;4995576;28;20069;-59
2022/08/15 13:15:38;;;;;;;7.80;2.05;;;;;;;;;;4998115;28;20050;-58
2022/08/15 13:18:05;;;;;;;5.13;2.10;;;;;;;;;;5018795;28;20026;-58
2022/08/15 13:26:02;;;;;;;9.18;2.45;;;;;;;;;;4998792;28;20084;-58
2022/08/15 13:28:29;;;;;;;5.75;2.33;;;;;;;;;;5014115;28;20116;-58
2022/08/15 13:30:55;;;;;;;5.85;2.00;;;;;;;;;;4999043;28;20049;-56
2022/08/15 13:33:22;;;;;;;6.68;2.30;;;;;;;;;;4998968;28;20034;-58
2022/08/15 13:35:49;;;;;;;10.02;2.35;;;;;;;;;;4998662;28;20049;-55
2022/08/15 13:38:15;;;;;;;9.23;2.22;;;;;;;;;;4998252;28;20046;-58
2022/08/15 13:40:50;;;;;;;7.63;2.63;;;;;;;;;;5012891;28;20045;-59
2022/08/15 13:43:17;;;;;;;6.65;2.28;;;;;;;;;;4998711;28;20034;-58
2022/08/15 13:45:44;;;;;;;5.25;2.13;;;;;;;;;;4997204;28;20042;-58
2022/08/15 13:48:16;;;;;;;7.35;2.70;;;;;;;;;;4997129;28;20762;-59
2022/08/15 13:50:43;;;;;;;11.43;2.95;;;;;;;;;;4996392;28;20064;-59
2022/08/15 13:53:09;;;;;;;7.35;2.30;;;;;;;;;;4997595;28;20669;-59
2022/08/15 13:55:36;;;;;;;7.65;2.13;;;;;;;;;;4997225;28;20088;-59
2022/08/15 13:58:02;;;;;;;6.00;2.15;;;;;;;;;;4996194;28;20033;-59
2022/08/15 14:00:30;;;;;;;10.77;2.53;;;;;;;;;;4996147;28;20389;-58
2022/08/15 14:02:57;;;;;;;11.32;2.30;;;;;;;;;;4998134;28;20034;-58
2022/08/15 14:05:25;;;;;;;8.10;2.42;;;;;;;;;;4996285;28;20037;-59
2022/08/15 14:07:52;;;;;;;8.40;2.15;;;;;;;;;;4993799;28;20064;-59
2022/08/15 14:10:20;;;;;;;7.57;2.40;;;;;;;;;;4995904;28;20183;-58
2022/08/15 14:12:47;;;;;;;6.90;2.00;;;;;;;;;;4995715;28;20041;-58
2022/08/15 14:15:15;;;;;;;8.85;2.40;;;;;;;;;;5003516;28;20038;-58
2022/08/15 14:17:43;;;;;;;7.63;2.30;;;;;;;;;;5003370;28;20038;-58
2022/08/15 14:20:11;;;;;;;10.35;2.35;;;;;;;;;;4996592;28;20100;-59
2022/08/15 14:22:37;;;;;;;10.57;2.22;;;;;;;;;;4996386;28;20510;-58
2022/08/15 14:25:04;;;;;;;9.88;2.28;;;;;;;;;;4997597;28;20044;-58
2022/08/15 14:27:32;;;;;;;5.43;2.38;;;;;;;;;;4992913;28;20590;-59
2022/08/15 14:29:58;;;;;;;8.20;2.20;;;;;;;;;;4995354;28;20101;-59
2022/08/15 14:32:25;;;;;;;7.85;2.40;;;;;;;;;;4996030;28;20235;-59
2022/08/15 14:34:52;;;;;;;12.23;2.42;;;;;;;;;;4997721;28;20038;-59
2022/08/15 14:37:20;;;;;;;12.80;2.25;;;;;;;;;;4994068;28;20054;-59
2022/08/15 14:39:48;;;;;;;9.82;2.13;;;;;;;;;;4996555;28;20041;-59
2022/08/15 14:42:15;;;;;;;8.23;2.13;;;;;;;;;;5012177;28;20073;-57
2022/08/15 14:44:43;;;;;;;9.82;2.28;;;;;;;;;;4996502;28;20049;-59
2022/08/15 14:47:14;;;;;;;9.43;2.42;;;;;;;;;;5011151;28;20092;-58
2022/08/15 14:49:41;;;;;;;9.38;2.13;;;;;;;;;;4996379;28;20037;-58
2022/08/15 14:52:08;;;;;;;16.98;2.40;;;;;;;;;;4996654;28;20124;-59
2022/08/15 14:54:36;;;;;;;8.20;2.13;;;;;;;;;;4996135;28;20041;-58
2022/08/15 14:57:07;;;;;;;9.75;2.30;;;;;;;;;;4995237;28;20048;-59
2022/08/15 14:59:36;;;;;;;5.18;1.88;;;;;;;;;;4996162;28;20092;-59
2022/08/15 15:02:06;;;;;;;9.73;2.33;;;;;;;;;;4995908;28;20064;-59
2022/08/15 15:04:32;;;;;;;7.43;2.00;;;;;;;;;;4995224;28;20046;-58
2022/08/15 15:07:00;;;;;;;13.32;2.28;;;;;;;;;;4994675;28;20495;-60
2022/08/15 15:09:28;;;;;;;8.57;2.40;;;;;;;;;;5014612;28;20575;-59
2022/08/15 15:11:54;;;;;;;8.15;1.90;;;;;;;;;;4995136;28;21461;-59
2022/08/15 15:14:22;;;;;;;6.35;2.00;;;;;;;;;;4994639;28;20045;-59
2022/08/15 15:16:49;;;;;;;7.10;1.90;;;;;;;;;;4996481;28;20168;-59
2022/08/15 15:19:20;;;;;;;5.75;1.83;;;;;;;;;;4996221;28;20578;-58
2022/08/15 15:21:47;;;;;;;9.45;2.00;;;;;;;;;;5011513;28;20054;-59
2022/08/15 15:24:13;;;;;;;7.15;2.05;;;;;;;;;;4997216;28;20038;-59
2022/08/15 15:26:42;;;;;;;6.70;1.80;;;;;;;;;;4995481;28;20570;-59
2022/08/15 15:29:10;;;;;;;9.25;2.38;;;;;;;;;;4998527;28;20069;-59
2022/08/15 15:31:36;;;;;;;5.82;1.95;;;;;;;;;;4994578;28;20038;-59
2022/08/15 15:34:03;;;;;;;5.70;2.28;;;;;;;;;;4998275;28;20384;-59
2022/08/15 15:36:33;;;;;;;4.63;1.63;;;;;;;;;;4996792;28;20462;-59
2022/08/15 15:39:05;;;;;;;9.10;2.20;;;;;;;;;;4998495;28;20069;-59